sensor_id;sensor_type;location;lat;lon;timestamp;pressure;altitude;pressure_sealevel;temperature;humidity
8575;BME280;4325;42.520;27.448;2023-03-11T00:02:10;99493.34;;;16.41;100.00
8575;BME280;4325;42.520;27.448;2023-03-11T00:04:37;99499.22;;;16.40;100.00
8575;BME280;4325;42.520;27.448;2023-03-11T00:07:04;99493.88;;;16.35;100.00
8575;BME280;4325;42.520;27.448;2023-03-11T00:09:31;99477.19;;;16.31;100.00
8575;BME280;4325;42.520;27.448;2023-03-11T00:11:59;99479.63;;;16.33;100.00
8575;BME280;4325;42.520;27.448;2023-03-11T00:14:26;99465.81;;;16.33;100.00
8575;BME280;4325;42.520;27.448;2023-03-11T00:16:54;99455.44;;;16.30;100.00
8575;BME280;4325;42.520;27.448;2023-03-11T00:19:21;99451.66;;;16.34;100.00
8575;BME280;4325;42.520;27.448;2023-03-11T00:21:48;99457.53;;;16.33;100.00
8575;BME280;4325;42.520;27.448;2023-03-11T00:24:15;99447.34;;;16.25;100.00
8575;BME280;4325;42.520;27.448;2023-03-11T00:26:42;99446.69;;;16.28;100.00
8575;BME280;4325;42.520;27.448;2023-03-11T00:29:09;99441.16;;;16.28;100.00
8575;BME280;4325;42.520;27.448;2023-03-11T00:31:36;99431.88;;;16.12;100.00
8575;BME280;4325;42.520;27.448;2023-03-11T00:34:04;99427.53;;;15.90;100.00
8575;BME280;4325;42.520;27.448;2023-03-11T00:36:32;99422.13;;;15.81;100.00
8575;BME280;4325;42.520;27.448;2023-03-11T00:39:00;99413.34;;;15.79;100.00
8575;BME280;4325;42.520;27.448;2023-03-11T00:41:31;99412.56;;;15.79;100.00
8575;BME280;4325;42.520;27.448;2023-03-11T00:43:58;99400.81;;;15.82;100.00
8575;BME280;4325;42.520;27.448;2023-03-11T00:46:24;99410.38;;;15.84;100.00
8575;BME280;4325;42.520;27.448;2023-03-11T00:48:52;99396.38;;;15.90;100.00
8575;BME280;4325;42.520;27.448;2023-03-11T00:51:20;99402.03;;;15.93;100.00
8575;BME280;4325;42.520;27.448;2023-03-11T00:53:47;99411.59;;;15.96;100.00
8575;BME280;4325;42.520;27.448;2023-03-11T00:56:14;99393.19;;;16.00;100.00
8575;BME280;4325;42.520;27.448;2023-03-11T00:58:42;99389.31;;;16.01;100.00
8575;BME280;4325;42.520;27.448;2023-03-11T01:01:11;99386.66;;;16.04;100.00
8575;BME280;4325;42.520;27.448;2023-03-11T01:03:38;99363.78;;;16.04;100.00
8575;BME280;4325;42.520;27.448;2023-03-11T01:06:06;99377.34;;;16.09;100.00
8575;BME280;4325;42.520;27.448;2023-03-11T01:08:34;99376.34;;;16.13;100.00
8575;BME280;4325;42.520;27.448;2023-03-11T01:11:03;99384.72;;;16.17;100.00
8575;BME280;4325;42.520;27.448;2023-03-11T01:13:31;99372.19;;;16.19;100.00
8575;BME280;4325;42.520;27.448;2023-03-11T01:15:58;99373.00;;;16.20;100.00
8575;BME280;4325;42.520;27.448;2023-03-11T01:18:25;99360.81;;;16.21;100.00
8575;BME280;4325;42.520;27.448;2023-03-11T01:20:53;99356.53;;;16.23;100.00
8575;BME280;4325;42.520;27.448;2023-03-11T01:23:20;99353.47;;;16.25;100.00
8575;BME280;4325;42.520;27.448;2023-03-11T01:25:48;99355.53;;;16.28;100.00
8575;BME280;4325;42.520;27.448;2023-03-11T01:28:15;99337.81;;;16.29;100.00
8575;BME280;4325;42.520;27.448;2023-03-11T01:30:43;99335.50;;;16.31;100.00
8575;BME280;4325;42.520;27.448;2023-03-11T01:33:14;99338.28;;;16.31;100.00
8575;BME280;4325;42.520;27.448;2023-03-11T01:35:41;99349.00;;;16.32;100.00
8575;BME280;4325;42.520;27.448;2023-03-11T01:38:09;99352.06;;;16.31;100.00
8575;BME280;4325;42.520;27.448;2023-03-11T01:40:37;99341.75;;;16.28;100.00
8575;BME280;4325;42.520;27.448;2023-03-11T01:46:15;99333.31;;;16.24;100.00
8575;BME280;4325;42.520;27.448;2023-03-11T01:48:45;99323.16;;;16.16;100.00
8575;BME280;4325;42.520;27.448;2023-03-11T01:51:13;99324.91;;;16.21;100.00
8575;BME280;4325;42.520;27.448;2023-03-11T01:53:41;99327.19;;;16.19;100.00
8575;BME280;4325;42.520;27.448;2023-03-11T01:56:08;99320.53;;;16.20;100.00
8575;BME280;4325;42.520;27.448;2023-03-11T01:58:38;99317.31;;;16.18;100.00
8575;BME280;4325;42.520;27.448;2023-03-11T02:01:09;99321.47;;;16.24;100.00
8575;BME280;4325;42.520;27.448;2023-03-11T02:03:39;99304.88;;;16.24;100.00
8575;BME280;4325;42.520;27.448;2023-03-11T02:06:09;99296.59;;;16.24;100.00
8575;BME280;4325;42.520;27.448;2023-03-11T02:08:36;99292.72;;;16.25;100.00
8575;BME280;4325;42.520;27.448;2023-03-11T02:11:05;99303.06;;;16.28;100.00
8575;BME280;4325;42.520;27.448;2023-03-11T02:13:33;99287.63;;;16.27;100.00
8575;BME280;4325;42.520;27.448;2023-03-11T02:16:02;99272.91;;;16.23;100.00
8575;BME280;4325;42.520;27.448;2023-03-11T02:18:29;99287.19;;;16.25;100.00
8575;BME280;4325;42.520;27.448;2023-03-11T02:21:04;99281.66;;;16.25;100.00
8575;BME280;4325;42.520;27.448;2023-03-11T02:23:40;99277.72;;;16.26;100.00
8575;BME280;4325;42.520;27.448;2023-03-11T02:26:14;99268.31;;;16.27;100.00
8575;BME280;4325;42.520;27.448;2023-03-11T02:28:45;99263.25;;;16.29;100.00
8575;BME280;4325;42.520;27.448;2023-03-11T02:31:13;99266.13;;;16.32;100.00
8575;BME280;4325;42.520;27.448;2023-03-11T02:33:41;99254.28;;;16.32;100.00
8575;BME280;4325;42.520;27.448;2023-03-11T02:36:32;99267.19;;;16.40;100.00
8575;BME280;4325;42.520;27.448;2023-03-11T02:38:59;99248.28;;;16.42;100.00
8575;BME280;4325;42.520;27.448;2023-03-11T02:41:26;99265.56;;;16.39;100.00
8575;BME280;4325;42.520;27.448;2023-03-11T02:43:55;99249.22;;;16.34;100.00
8575;BME280;4325;42.520;27.448;2023-03-11T02:46:23;99246.22;;;16.27;100.00
8575;BME280;4325;42.520;27.448;2023-03-11T02:48:51;99244.38;;;16.19;100.00
8575;BME280;4325;42.520;27.448;2023-03-11T02:51:19;99244.59;;;16.14;100.00
8575;BME280;4325;42.520;27.448;2023-03-11T02:53:48;99243.22;;;16.08;100.00
8575;BME280;4325;42.520;27.448;2023-03-11T02:56:16;99233.53;;;16.02;100.00
8575;BME280;4325;42.520;27.448;2023-03-11T02:58:43;99234.00;;;15.92;100.00
8575;BME280;4325;42.520;27.448;2023-03-11T03:01:11;99228.22;;;15.84;100.00
8575;BME280;4325;42.520;27.448;2023-03-11T03:03:38;99214.66;;;15.79;100.00
8575;BME280;4325;42.520;27.448;2023-03-11T03:06:05;99220.53;;;15.78;100.00
8575;BME280;4325;42.520;27.448;2023-03-11T03:08:32;99226.41;;;15.76;100.00
8575;BME280;4325;42.520;27.448;2023-03-11T03:10:59;99230.06;;;15.68;100.00
8575;BME280;4325;42.520;27.448;2023-03-11T03:13:28;99233.94;;;15.67;100.00
8575;BME280;4325;42.520;27.448;2023-03-11T03:15:55;99233.41;;;15.74;100.00
8575;BME280;4325;42.520;27.448;2023-03-11T03:18:24;99230.50;;;15.70;100.00
8575;BME280;4325;42.520;27.448;2023-03-11T03:20:51;99210.63;;;15.32;100.00
8575;BME280;4325;42.520;27.448;2023-03-11T03:23:19;99216.53;;;14.89;100.00
8575;BME280;4325;42.520;27.448;2023-03-11T03:25:46;99222.22;;;14.64;100.00
8575;BME280;4325;42.520;27.448;2023-03-11T03:28:13;99212.50;;;14.45;100.00
8575;BME280;4325;42.520;27.448;2023-03-11T03:30:40;99221.41;;;14.42;100.00
8575;BME280;4325;42.520;27.448;2023-03-11T03:33:07;99202.44;;;14.41;100.00
8575;BME280;4325;42.520;27.448;2023-03-11T03:35:39;99211.06;;;14.39;100.00
8575;BME280;4325;42.520;27.448;2023-03-11T03:38:06;99214.44;;;14.45;100.00
8575;BME280;4325;42.520;27.448;2023-03-11T03:40:33;99201.94;;;14.47;100.00
8575;BME280;4325;42.520;27.448;2023-03-11T03:43:00;99198.09;;;14.61;100.00
8575;BME280;4325;42.520;27.448;2023-03-11T03:45:27;99204.50;;;14.73;100.00
8575;BME280;4325;42.520;27.448;2023-03-11T03:47:54;99194.56;;;14.81;100.00
8575;BME280;4325;42.520;27.448;2023-03-11T03:50:21;99190.72;;;14.94;100.00
8575;BME280;4325;42.520;27.448;2023-03-11T03:52:49;99188.91;;;14.98;100.00
8575;BME280;4325;42.520;27.448;2023-03-11T03:55:16;99194.91;;;15.12;100.00
8575;BME280;4325;42.520;27.448;2023-03-11T03:57:43;99177.28;;;15.25;100.00
8575;BME280;4325;42.520;27.448;2023-03-11T04:00:11;99164.09;;;15.31;100.00
8575;BME280;4325;42.520;27.448;2023-03-11T04:02:38;99165.81;;;15.35;100.00
8575;BME280;4325;42.520;27.448;2023-03-11T04:05:06;99168.69;;;15.39;100.00
8575;BME280;4325;42.520;27.448;2023-03-11T04:07:33;99167.88;;;15.38;100.00
8575;BME280;4325;42.520;27.448;2023-03-11T04:10:02;99179.84;;;15.42;100.00
8575;BME280;4325;42.520;27.448;2023-03-11T04:12:28;99152.91;;;15.48;100.00
8575;BME280;4325;42.520;27.448;2023-03-11T04:14:55;99158.53;;;15.51;100.00
8575;BME280;4325;42.520;27.448;2023-03-11T04:17:22;99161.06;;;15.56;100.00
8575;BME280;4325;42.520;27.448;2023-03-11T04:19:49;99154.41;;;15.57;100.00
8575;BME280;4325;42.520;27.448;2023-03-11T04:22:16;99154.50;;;15.61;100.00
8575;BME280;4325;42.520;27.448;2023-03-11T04:24:43;99135.78;;;15.66;100.00
8575;BME280;4325;42.520;27.448;2023-03-11T04:27:11;99131.88;;;15.67;100.00
8575;BME280;4325;42.520;27.448;2023-03-11T04:29:38;99139.59;;;15.74;100.00
8575;BME280;4325;42.520;27.448;2023-03-11T04:32:05;99130.97;;;15.75;100.00
8575;BME280;4325;42.520;27.448;2023-03-11T04:34:32;99146.84;;;15.78;100.00
8575;BME280;4325;42.520;27.448;2023-03-11T04:36:59;99148.91;;;15.81;100.00
8575;BME280;4325;42.520;27.448;2023-03-11T04:39:26;99143.38;;;15.81;100.00
8575;BME280;4325;42.520;27.448;2023-03-11T04:41:53;99136.84;;;15.86;100.00
8575;BME280;4325;42.520;27.448;2023-03-11T04:44:21;99121.41;;;15.85;100.00
8575;BME280;4325;42.520;27.448;2023-03-11T04:46:48;99124.53;;;15.83;100.00
8575;BME280;4325;42.520;27.448;2023-03-11T04:49:14;99130.28;;;15.78;100.00
8575;BME280;4325;42.520;27.448;2023-03-11T04:51:41;99126.34;;;15.79;100.00
8575;BME280;4325;42.520;27.448;2023-03-11T04:54:08;99121.63;;;15.80;100.00
8575;BME280;4325;42.520;27.448;2023-03-11T04:56:35;99114.53;;;15.79;100.00
8575;BME280;4325;42.520;27.448;2023-03-11T04:59:02;99108.66;;;15.80;100.00
8575;BME280;4325;42.520;27.448;2023-03-11T05:01:30;99128.88;;;15.84;100.00
8575;BME280;4325;42.520;27.448;2023-03-11T05:03:57;99110.72;;;15.83;100.00
8575;BME280;4325;42.520;27.448;2023-03-11T05:06:24;99106.03;;;15.84;100.00
8575;BME280;4325;42.520;27.448;2023-03-11T05:08:51;99121.88;;;15.87;100.00
8575;BME280;4325;42.520;27.448;2023-03-11T05:11:17;99126.59;;;15.87;100.00
8575;BME280;4325;42.520;27.448;2023-03-11T05:13:44;99130.63;;;15.89;100.00
8575;BME280;4325;42.520;27.448;2023-03-11T05:16:11;99133.03;;;15.91;100.00
8575;BME280;4325;42.520;27.448;2023-03-11T05:18:39;99139.13;;;15.96;100.00
8575;BME280;4325;42.520;27.448;2023-03-11T05:21:06;99130.94;;;16.00;100.00
8575;BME280;4325;42.520;27.448;2023-03-11T05:23:33;99134.16;;;16.02;100.00
8575;BME280;4325;42.520;27.448;2023-03-11T05:26:00;99137.41;;;16.04;100.00
8575;BME280;4325;42.520;27.448;2023-03-11T05:28:27;99130.50;;;16.10;100.00
8575;BME280;4325;42.520;27.448;2023-03-11T05:30:54;99144.50;;;16.17;100.00
8575;BME280;4325;42.520;27.448;2023-03-11T05:33:21;99140.38;;;16.23;100.00
8575;BME280;4325;42.520;27.448;2023-03-11T05:35:50;99133.69;;;16.24;100.00
8575;BME280;4325;42.520;27.448;2023-03-11T05:38:16;99120.31;;;16.26;100.00
8575;BME280;4325;42.520;27.448;2023-03-11T05:40:43;99130.22;;;16.27;100.00
8575;BME280;4325;42.520;27.448;2023-03-11T05:43:10;99123.56;;;16.28;100.00
8575;BME280;4325;42.520;27.448;2023-03-11T05:45:37;99128.59;;;16.26;100.00
8575;BME280;4325;42.520;27.448;2023-03-11T05:48:04;99110.66;;;16.32;100.00
8575;BME280;4325;42.520;27.448;2023-03-11T05:50:31;99117.22;;;16.39;100.00
8575;BME280;4325;42.520;27.448;2023-03-11T05:52:59;99116.59;;;16.46;100.00
8575;BME280;4325;42.520;27.448;2023-03-11T05:55:26;99105.53;;;16.58;100.00
8575;BME280;4325;42.520;27.448;2023-03-11T05:57:53;99113.94;;;16.62;100.00
8575;BME280;4325;42.520;27.448;2023-03-11T06:00:23;99109.78;;;16.68;100.00
8575;BME280;4325;42.520;27.448;2023-03-11T06:02:51;99107.56;;;16.73;100.00
8575;BME280;4325;42.520;27.448;2023-03-11T06:05:17;99114.00;;;16.77;100.00
8575;BME280;4325;42.520;27.448;2023-03-11T06:07:44;99100.16;;;16.77;100.00
8575;BME280;4325;42.520;27.448;2023-03-11T06:10:13;99103.03;;;16.81;100.00
8575;BME280;4325;42.520;27.448;2023-03-11T06:12:39;99085.41;;;16.85;100.00
8575;BME280;4325;42.520;27.448;2023-03-11T06:15:07;99087.03;;;16.86;100.00
8575;BME280;4325;42.520;27.448;2023-03-11T06:17:34;99087.47;;;16.88;100.00
8575;BME280;4325;42.520;27.448;2023-03-11T06:20:01;99063.03;;;16.90;100.00
8575;BME280;4325;42.520;27.448;2023-03-11T06:22:29;99077.75;;;16.94;100.00
8575;BME280;4325;42.520;27.448;2023-03-11T06:24:55;99085.53;;;17.04;100.00
8575;BME280;4325;42.520;27.448;2023-03-11T06:27:24;99084.38;;;17.05;100.00
8575;BME280;4325;42.520;27.448;2023-03-11T06:29:51;99085.97;;;17.06;100.00
8575;BME280;4325;42.520;27.448;2023-03-11T06:32:19;99093.75;;;17.16;100.00
8575;BME280;4325;42.520;27.448;2023-03-11T06:34:49;99094.84;;;17.28;100.00
8575;BME280;4325;42.520;27.448;2023-03-11T06:37:16;99085.81;;;17.31;100.00
8575;BME280;4325;42.520;27.448;2023-03-11T06:39:43;99077.00;;;17.25;100.00
8575;BME280;4325;42.520;27.448;2023-03-11T06:42:10;99060.75;;;17.24;100.00
8575;BME280;4325;42.520;27.448;2023-03-11T06:44:38;99074.31;;;17.13;100.00
8575;BME280;4325;42.520;27.448;2023-03-11T06:47:05;99057.97;;;17.24;100.00
8575;BME280;4325;42.520;27.448;2023-03-11T06:49:32;99066.09;;;17.48;100.00
8575;BME280;4325;42.520;27.448;2023-03-11T06:51:59;99059.50;;;17.52;100.00
8575;BME280;4325;42.520;27.448;2023-03-11T06:54:26;99066.53;;;17.50;100.00
8575;BME280;4325;42.520;27.448;2023-03-11T06:56:52;99067.97;;;17.44;100.00
8575;BME280;4325;42.520;27.448;2023-03-11T06:59:19;99065.38;;;17.51;100.00
8575;BME280;4325;42.520;27.448;2023-03-11T07:01:48;99067.13;;;17.55;100.00
8575;BME280;4325;42.520;27.448;2023-03-11T07:04:15;99052.66;;;17.62;100.00
8575;BME280;4325;42.520;27.448;2023-03-11T07:06:42;99045.28;;;17.85;100.00
8575;BME280;4325;42.520;27.448;2023-03-11T07:09:09;99042.72;;;18.30;100.00
8575;BME280;4325;42.520;27.448;2023-03-11T07:11:36;99038.59;;;18.78;98.06
8575;BME280;4325;42.520;27.448;2023-03-11T07:14:04;99035.47;;;19.70;92.14
8575;BME280;4325;42.520;27.448;2023-03-11T07:16:31;99041.88;;;19.74;88.29
8575;BME280;4325;42.520;27.448;2023-03-11T07:19:00;99048.09;;;20.47;81.53
8575;BME280;4325;42.520;27.448;2023-03-11T07:21:29;99044.47;;;21.13;76.00
8575;BME280;4325;42.520;27.448;2023-03-11T07:23:58;99034.91;;;21.10;73.09
8575;BME280;4325;42.520;27.448;2023-03-11T07:26:26;99019.16;;;20.51;76.31
8575;BME280;4325;42.520;27.448;2023-03-11T07:28:55;99027.81;;;21.16;72.33
8575;BME280;4325;42.520;27.448;2023-03-11T07:31:23;99019.66;;;21.85;65.04
8575;BME280;4325;42.520;27.448;2023-03-11T07:33:51;99023.25;;;22.61;61.03
8575;BME280;4325;42.520;27.448;2023-03-11T07:36:21;99016.81;;;22.57;58.10
8575;BME280;4325;42.520;27.448;2023-03-11T07:38:48;99022.78;;;22.52;55.86
8575;BME280;4325;42.520;27.448;2023-03-11T07:41:19;99015.22;;;22.49;55.07
8575;BME280;4325;42.520;27.448;2023-03-11T07:43:46;99010.97;;;21.97;56.66
8575;BME280;4325;42.520;27.448;2023-03-11T07:46:15;99008.25;;;21.53;58.66
8575;BME280;4325;42.520;27.448;2023-03-11T07:48:43;99020.91;;;21.47;60.37
8575;BME280;4325;42.520;27.448;2023-03-11T07:51:12;99017.34;;;21.02;63.58
8575;BME280;4325;42.520;27.448;2023-03-11T07:53:40;99015.13;;;20.19;68.64
8575;BME280;4325;42.520;27.448;2023-03-11T07:56:09;99019.09;;;19.88;72.79
8575;BME280;4325;42.520;27.448;2023-03-11T07:58:37;99014.84;;;19.98;73.44
8575;BME280;4325;42.520;27.448;2023-03-11T08:01:05;99024.91;;;20.69;70.09
8575;BME280;4325;42.520;27.448;2023-03-11T08:03:32;99031.34;;;20.76;68.14
8575;BME280;4325;42.520;27.448;2023-03-11T08:05:59;99035.69;;;20.40;70.18
8575;BME280;4325;42.520;27.448;2023-03-11T08:08:26;99045.28;;;20.17;71.39
8575;BME280;4325;42.520;27.448;2023-03-11T08:10:54;99050.38;;;21.08;69.26
8575;BME280;4325;42.520;27.448;2023-03-11T08:13:21;99047.88;;;22.52;60.89
8575;BME280;4325;42.520;27.448;2023-03-11T08:15:48;99050.84;;;22.87;59.31
8575;BME280;4325;42.520;27.448;2023-03-11T08:18:15;99039.00;;;23.50;56.17
8575;BME280;4325;42.520;27.448;2023-03-11T08:20:42;99036.16;;;23.25;55.15
8575;BME280;4325;42.520;27.448;2023-03-11T08:23:09;99048.09;;;23.08;55.85
8575;BME280;4325;42.520;27.448;2023-03-11T08:25:37;99067.66;;;23.08;56.58
8575;BME280;4325;42.520;27.448;2023-03-11T08:28:06;99051.34;;;24.12;53.33
8575;BME280;4325;42.520;27.448;2023-03-11T08:30:34;99043.69;;;24.34;51.95
8575;BME280;4325;42.520;27.448;2023-03-11T08:33:02;99044.88;;;22.85;54.97
8575;BME280;4325;42.520;27.448;2023-03-11T08:35:29;99033.91;;;22.45;58.52
8575;BME280;4325;42.520;27.448;2023-03-11T08:37:56;99042.19;;;22.23;59.06
8575;BME280;4325;42.520;27.448;2023-03-11T08:40:23;99025.47;;;21.69;58.53
8575;BME280;4325;42.520;27.448;2023-03-11T08:42:50;99024.59;;;21.58;58.61
8575;BME280;4325;42.520;27.448;2023-03-11T08:45:18;99003.13;;;21.11;59.42
8575;BME280;4325;42.520;27.448;2023-03-11T08:47:45;99013.16;;;20.86;62.87
8575;BME280;4325;42.520;27.448;2023-03-11T08:50:13;98995.56;;;20.75;64.59
8575;BME280;4325;42.520;27.448;2023-03-11T08:52:41;98988.75;;;20.06;67.79
8575;BME280;4325;42.520;27.448;2023-03-11T08:55:11;98990.00;;;20.38;67.94
8575;BME280;4325;42.520;27.448;2023-03-11T08:57:39;98985.41;;;20.93;63.84
8575;BME280;4325;42.520;27.448;2023-03-11T09:00:08;98987.94;;;22.10;58.50
8575;BME280;4325;42.520;27.448;2023-03-11T09:02:37;98976.25;;;22.70;55.98
8575;BME280;4325;42.520;27.448;2023-03-11T09:05:04;98977.34;;;21.72;59.41
8575;BME280;4325;42.520;27.448;2023-03-11T09:07:31;98979.03;;;20.89;64.08
8575;BME280;4325;42.520;27.448;2023-03-11T09:09:58;98982.41;;;20.68;66.50
8575;BME280;4325;42.520;27.448;2023-03-11T09:12:25;98981.69;;;20.78;66.48
8575;BME280;4325;42.520;27.448;2023-03-11T09:14:52;98974.75;;;20.58;67.02
8575;BME280;4325;42.520;27.448;2023-03-11T09:17:20;98958.25;;;19.80;78.08
8575;BME280;4325;42.520;27.448;2023-03-11T09:19:49;98971.06;;;19.13;86.39
8575;BME280;4325;42.520;27.448;2023-03-11T09:22:16;98974.88;;;18.82;89.92
8575;BME280;4325;42.520;27.448;2023-03-11T09:24:43;98960.22;;;18.59;89.81
8575;BME280;4325;42.520;27.448;2023-03-11T09:27:09;98973.16;;;18.74;87.14
8575;BME280;4325;42.520;27.448;2023-03-11T09:29:37;98985.28;;;18.66;87.25
8575;BME280;4325;42.520;27.448;2023-03-11T09:32:04;98970.41;;;18.35;90.73
8575;BME280;4325;42.520;27.448;2023-03-11T09:34:31;98962.31;;;17.89;94.14
8575;BME280;4325;42.520;27.448;2023-03-11T09:37:01;98965.56;;;17.75;96.93
8575;BME280;4325;42.520;27.448;2023-03-11T09:39:27;98961.03;;;17.67;98.81
8575;BME280;4325;42.520;27.448;2023-03-11T09:41:58;98969.97;;;17.76;99.80
8575;BME280;4325;42.520;27.448;2023-03-11T09:44:34;98983.75;;;17.57;99.16
8575;BME280;4325;42.520;27.448;2023-03-11T09:47:14;98959.38;;;17.47;97.46
8575;BME280;4325;42.520;27.448;2023-03-11T09:49:53;98975.59;;;17.48;97.00
8575;BME280;4325;42.520;27.448;2023-03-11T09:52:29;98942.03;;;17.50;96.46
8575;BME280;4325;42.520;27.448;2023-03-11T09:55:00;98948.75;;;17.49;96.93
8575;BME280;4325;42.520;27.448;2023-03-11T09:57:31;98943.59;;;17.32;98.15
8575;BME280;4325;42.520;27.448;2023-03-11T10:00:00;98962.25;;;17.35;98.62
8575;BME280;4325;42.520;27.448;2023-03-11T10:02:29;98951.63;;;17.37;100.00
8575;BME280;4325;42.520;27.448;2023-03-11T10:05:02;98947.94;;;17.48;99.31
8575;BME280;4325;42.520;27.448;2023-03-11T10:07:39;98939.25;;;17.50;98.69
8575;BME280;4325;42.520;27.448;2023-03-11T10:10:11;98947.19;;;17.67;96.54
8575;BME280;4325;42.520;27.448;2023-03-11T10:12:46;98947.53;;;17.81;91.26
8575;BME280;4325;42.520;27.448;2023-03-11T10:15:22;98953.34;;;17.76;84.39
8575;BME280;4325;42.520;27.448;2023-03-11T10:18:00;98938.31;;;17.77;81.49
8575;BME280;4325;42.520;27.448;2023-03-11T10:20:35;98953.47;;;17.48;80.48
8575;BME280;4325;42.520;27.448;2023-03-11T10:23:14;98943.16;;;17.30;84.16
8575;BME280;4325;42.520;27.448;2023-03-11T10:25:55;98950.41;;;16.87;91.31
8575;BME280;4325;42.520;27.448;2023-03-11T10:28:27;98953.59;;;16.58;94.87
8575;BME280;4325;42.520;27.448;2023-03-11T10:31:01;98945.16;;;16.39;100.00
8575;BME280;4325;42.520;27.448;2023-03-11T10:33:36;98938.38;;;16.09;100.00
8575;BME280;4325;42.520;27.448;2023-03-11T10:36:04;98938.47;;;15.45;100.00
8575;BME280;4325;42.520;27.448;2023-03-11T10:38:37;98937.31;;;14.97;100.00
8575;BME280;4325;42.520;27.448;2023-03-11T10:41:13;98942.22;;;14.68;100.00
8575;BME280;4325;42.520;27.448;2023-03-11T10:43:46;98945.28;;;14.54;100.00
8575;BME280;4325;42.520;27.448;2023-03-11T10:46:18;98938.28;;;14.44;100.00
8575;BME280;4325;42.520;27.448;2023-03-11T10:48:46;98937.22;;;14.37;100.00
8575;BME280;4325;42.520;27.448;2023-03-11T10:51:15;98931.56;;;14.33;100.00
8575;BME280;4325;42.520;27.448;2023-03-11T10:53:50;98927.25;;;14.44;100.00
8575;BME280;4325;42.520;27.448;2023-03-11T10:56:27;98927.75;;;14.59;100.00
8575;BME280;4325;42.520;27.448;2023-03-11T10:58:54;98907.78;;;14.49;100.00
8575;BME280;4325;42.520;27.448;2023-03-11T11:01:22;98901.06;;;14.38;100.00
8575;BME280;4325;42.520;27.448;2023-03-11T11:03:51;98910.50;;;14.37;100.00
8575;BME280;4325;42.520;27.448;2023-03-11T11:06:24;98906.72;;;14.42;100.00
8575;BME280;4325;42.520;27.448;2023-03-11T11:09:05;98917.59;;;14.38;100.00
8575;BME280;4325;42.520;27.448;2023-03-11T11:11:32;98918.31;;;14.35;100.00
8575;BME280;4325;42.520;27.448;2023-03-11T11:14:00;98922.19;;;14.34;100.00
8575;BME280;4325;42.520;27.448;2023-03-11T11:16:27;98923.91;;;14.39;100.00
8575;BME280;4325;42.520;27.448;2023-03-11T11:18:58;98931.03;;;14.40;100.00
8575;BME280;4325;42.520;27.448;2023-03-11T11:21:30;98927.03;;;14.49;100.00
8575;BME280;4325;42.520;27.448;2023-03-11T11:24:14;98935.78;;;14.64;100.00
8575;BME280;4325;42.520;27.448;2023-03-11T11:27:02;98946.38;;;14.74;100.00
8575;BME280;4325;42.520;27.448;2023-03-11T11:29:29;98928.59;;;14.83;100.00
8575;BME280;4325;42.520;27.448;2023-03-11T11:32:14;98930.44;;;14.91;100.00
8575;BME280;4325;42.520;27.448;2023-03-11T11:34:52;98908.72;;;14.78;100.00
8575;BME280;4325;42.520;27.448;2023-03-11T11:37:19;98902.97;;;14.59;100.00
8575;BME280;4325;42.520;27.448;2023-03-11T11:39:52;98907.78;;;14.49;100.00
8575;BME280;4325;42.520;27.448;2023-03-11T11:42:21;98905.47;;;14.51;100.00
8575;BME280;4325;42.520;27.448;2023-03-11T11:44:52;98906.63;;;14.63;100.00
8575;BME280;4325;42.520;27.448;2023-03-11T11:47:22;98910.91;;;14.72;100.00
8575;BME280;4325;42.520;27.448;2023-03-11T11:49:53;98906.09;;;14.81;100.00
8575;BME280;4325;42.520;27.448;2023-03-11T11:52:23;98906.91;;;14.94;100.00
8575;BME280;4325;42.520;27.448;2023-03-11T11:54:59;98905.72;;;14.95;100.00
8575;BME280;4325;42.520;27.448;2023-03-11T11:57:27;98906.88;;;15.06;100.00
8575;BME280;4325;42.520;27.448;2023-03-11T11:59:54;98903.19;;;15.14;100.00
8575;BME280;4325;42.520;27.448;2023-03-11T12:02:37;98901.38;;;15.18;100.00
8575;BME280;4325;42.520;27.448;2023-03-11T12:05:08;98905.47;;;15.24;100.00
8575;BME280;4325;42.520;27.448;2023-03-11T12:08:02;98908.13;;;15.33;100.00
8575;BME280;4325;42.520;27.448;2023-03-11T12:10:41;98911.69;;;15.33;100.00
8575;BME280;4325;42.520;27.448;2023-03-11T12:13:42;98906.16;;;15.21;100.00
8575;BME280;4325;42.520;27.448;2023-03-11T12:16:19;98909.88;;;15.13;100.00
8575;BME280;4325;42.520;27.448;2023-03-11T12:18:51;98918.00;;;14.97;100.00
8575;BME280;4325;42.520;27.448;2023-03-11T12:21:33;98918.59;;;14.91;100.00
8575;BME280;4325;42.520;27.448;2023-03-11T12:24:15;98915.25;;;14.85;100.00
8575;BME280;4325;42.520;27.448;2023-03-11T12:26:51;98915.38;;;14.77;100.00
8575;BME280;4325;42.520;27.448;2023-03-11T12:29:23;98917.88;;;14.58;100.00
8575;BME280;4325;42.520;27.448;2023-03-11T12:31:52;98937.25;;;14.49;100.00
8575;BME280;4325;42.520;27.448;2023-03-11T12:34:21;98942.16;;;14.43;100.00
8575;BME280;4325;42.520;27.448;2023-03-11T12:36:50;98951.16;;;14.52;100.00
8575;BME280;4325;42.520;27.448;2023-03-11T12:39:23;98955.97;;;14.55;100.00
8575;BME280;4325;42.520;27.448;2023-03-11T12:42:15;98955.94;;;14.43;100.00
8575;BME280;4325;42.520;27.448;2023-03-11T12:44:44;98946.97;;;14.34;100.00
8575;BME280;4325;42.520;27.448;2023-03-11T12:47:28;98939.66;;;14.18;100.00
8575;BME280;4325;42.520;27.448;2023-03-11T12:53:01;98944.25;;;13.93;100.00
8575;BME280;4325;42.520;27.448;2023-03-11T12:55:33;98927.84;;;13.84;100.00
8575;BME280;4325;42.520;27.448;2023-03-11T12:58:27;98936.16;;;13.76;100.00
8575;BME280;4325;42.520;27.448;2023-03-11T13:01:16;98937.97;;;13.72;100.00
8575;BME280;4325;42.520;27.448;2023-03-11T13:03:56;98946.16;;;13.60;100.00
8575;BME280;4325;42.520;27.448;2023-03-11T13:07:02;98953.31;;;13.52;100.00
8575;BME280;4325;42.520;27.448;2023-03-11T13:09:33;98969.31;;;13.30;100.00
8575;BME280;4325;42.520;27.448;2023-03-11T13:12:00;98967.31;;;13.09;100.00
8575;BME280;4325;42.520;27.448;2023-03-11T13:14:30;98976.88;;;12.95;100.00
8575;BME280;4325;42.520;27.448;2023-03-11T13:17:22;98978.22;;;12.80;100.00
8575;BME280;4325;42.520;27.448;2023-03-11T13:19:52;98991.06;;;12.68;100.00
8575;BME280;4325;42.520;27.448;2023-03-11T13:22:39;99010.78;;;12.52;100.00